Albatros — C6CN4 — position and weather

sailwx.info

Track history (hours):
 
Tides and Currents Weather Stations Pressure Air Temp Water Temp Dewpoint Dewpoint Depression Visibility Wind Speed Wind Dir Waves Ship Positions

Albatros

Last reported at 2017-Sep-20 00:30 UTC. Time now 2017-Sep-20 00:34 UTC.
Position N 54°38' W 005°20'.

Length 205.5 m; beam 25.2 m; draft 7.6 m.

Type: Passenger vessel. MMSI: 308784000.

Date/timePositionNaut miles runAvg speedWind from/ knotsBaromVisibWave heightAir tempDewpointWater temp
2017-Sep-20 00:30N 54°38' W 005°20'611.5
2017-Sep-20 00:00N 54°44' W 005°24'611.9
2017-Sep-19 23:30N 54°44' W 005°34'612.0
2017-Sep-19 23:00N 54°42' W 005°44'612.2
2017-Sep-19 22:30N 54°38' W 005°52'2 3.6
2017-Sep-19 22:00N 54°37' W 005°54'0 0.0
2017-Sep-19 10:16N 54°37' W 005°54'1 3.6
2017-Sep-19 09:57N 54°38' W 005°53'511.7
2017-Sep-19 09:30N 54°42' W 005°47'612.3
2017-Sep-19 09:00N 54°45' W 005°38'612.0
2017-Sep-19 08:31N 54°51' W 005°35'713.0
2017-Sep-19 08:00N 54°57' W 005°37'2313.8
2017-Sep-19 06:19N 55°17' W 006°01'516.2
2017-Sep-19 06:00N 55°20' W 006°07'815.1
2017-Sep-19 05:30N 55°24' W 006°19'714.9
2017-Sep-19 05:00N 55°28' W 006°30'714.5
2017-Sep-19 04:31N 55°32' W 006°40'713.0
2017-Sep-19 04:01N 55°36' W 006°49'714.5
2017-Sep-19 03:30N 55°41' W 006°58'714.4
2017-Sep-19 03:00N 55°48' W 007°03'165 7.1
2017-Sep-18 03:37N 58°25' W 005°25'318.3
2017-Sep-18 03:26N 58°28' W 005°22'4116.7
2017-Sep-18 01:00N 58°43' W 004°10'918.8
2017-Sep-18 00:30N 58°43' W 003°52'1019.1
2017-Sep-18 00:00N 58°43' W 003°34'1020.7
2017-Sep-17 23:30N 58°44' W 003°14'1020.1
2017-Sep-17 23:00N 58°39' W 002°57'713.9
2017-Sep-17 22:30N 58°32' W 002°52'51 2.2
2017-Sep-16 23:50N 57°46' W 002°10'412.4
2017-Sep-16 23:30N 57°46' W 002°03'612.5
2017-Sep-16 23:00N 57°46' W 001°51'611.4
2017-Sep-16 22:30N 57°43' W 001°42'611.7
2017-Sep-16 22:00N 57°39' W 001°34'611.6
2017-Sep-16 21:27N 57°35' W 001°24'39414.7
2017-Sep-15 18:40N 53°49' E 008°08'315.5
2017-Sep-15 18:30N 53°47' E 008°10'714.7
2017-Sep-15 18:00N 53°42' E 008°20'713.9
2017-Sep-15 17:30N 53°37' E 008°28'4 8.8
2017-Sep-15 17:01N 53°34' E 008°33'0 0.6
2017-Sep-15 16:28N 53°34' E 008°33'0 0.0
2017-Sep-15 15:58N 53°34' E 008°33'0 0.0
2017-Sep-15 15:28N 53°34' E 008°33'0 0.0
2017-Sep-15 14:58N 53°34' E 008°33'0 0.0
2017-Sep-15 14:28N 53°34' E 008°33'0 0.0
2017-Sep-15 13:58N 53°34' E 008°33'0 0.0
2017-Sep-15 13:28N 53°34' E 008°33'0 0.0
2017-Sep-15 12:58N 53°34' E 008°33'0 0.0
2017-Sep-15 12:28N 53°34' E 008°33'0 0.0
2017-Sep-15 11:58N 53°34' E 008°33'0 0.0
2017-Sep-15 11:28N 53°34' E 008°33'0 0.0
2017-Sep-15 10:58N 53°34' E 008°33'0 0.0
2017-Sep-15 10:28N 53°34' E 008°33'0 0.0
2017-Sep-15 09:58N 53°34' E 008°33'0 0.0
2017-Sep-15 09:28N 53°34' E 008°33'0 0.0
2017-Sep-15 08:58N 53°34' E 008°33'0 0.0
2017-Sep-15 08:28N 53°34' E 008°33'0 0.0
2017-Sep-15 07:58N 53°34' E 008°33'0 0.0
2017-Sep-15 07:28N 53°34' E 008°33'0 0.0
2017-Sep-15 06:58N 53°34' E 008°33'0 0.0
2017-Sep-15 06:25N 53°34' E 008°33'0 0.0
2017-Sep-15 05:58N 53°34' E 008°33'0 0.2
2017-Sep-15 05:30N 53°34' E 008°33'3 6.5
2017-Sep-15 05:00N 53°36' E 008°30'714.9
2017-Sep-15 04:30N 53°41' E 008°21'815.7
2017-Sep-15 04:00N 53°46' E 008°10'815.3
2017-Sep-15 03:30N 53°51' E 008°00'714.1
2017-Sep-15 03:01N 53°52' E 007°49'510.6
2017-Sep-15 02:30N 53°54' E 007°40'5616.3
2017-Sep-14 23:03N 54°46' E 007°00'117.0
2017-Sep-14 22:58N 54°47' E 006°59'816.7
2017-Sep-14 22:30N 54°54' E 006°54'816.7
2017-Sep-14 22:00N 55°02' E 006°49'816.5
2017-Sep-14 21:30N 55°10' E 006°44'816.2
2017-Sep-14 20:59N 55°18' E 006°40'816.4
2017-Sep-14 20:29N 55°26' E 006°38'816.3
2017-Sep-14 19:59N 55°34' E 006°38'816.6
2017-Sep-14 19:29N 55°43' E 006°38'816.7
2017-Sep-14 19:00N 55°50' E 006°39'816.7
2017-Sep-14 18:30N 55°59' E 006°39'916.9
2017-Sep-14 18:00N 56°07' E 006°41'9417.1
2017-Sep-14 12:28N 57°42' E 006°48'817.6
2017-Sep-14 12:00N 57°50' E 006°49'917.2
2017-Sep-14 11:30N 57°58' E 006°50'510.4
2017-Sep-14 11:00N 58°03' E 006°52'4 7.3
2017-Sep-14 10:30N 58°03' E 006°59'4 8.3
2017-Sep-14 10:00N 58°07' E 007°03'0 0.1
2017-Sep-14 09:30N 58°07' E 007°03'0 0.1
2017-Sep-14 09:00N 58°07' E 007°03'0 0.0
2017-Sep-14 08:30N 58°07' E 007°03'0 0.0
2017-Sep-14 08:00N 58°07' E 007°03'0 0.0
2017-Sep-14 07:30N 58°07' E 007°03'0 0.0
2017-Sep-14 06:59N 58°07' E 007°03'0 0.1
2017-Sep-14 06:30N 58°07' E 007°03'0 0.0
2017-Sep-14 06:00N 58°07' E 007°03'0 0.0
2017-Sep-14 05:30N 58°07' E 007°03'1 2.1
2017-Sep-14 05:00N 58°06' E 007°02'4 7.2
2017-Sep-14 04:30N 58°03' E 006°59'611.0
2017-Sep-14 04:00N 58°01' E 006°49'510.9
2017-Sep-14 03:30N 58°02' E 006°39'714.6
2017-Sep-14 03:00N 58°04' E 006°26'815.0
2017-Sep-14 02:30N 58°08' E 006°14'714.8
2017-Sep-14 02:00N 58°13' E 006°03'815.4
2017-Sep-14 01:30N 58°18' E 005°52'815.6
2017-Sep-14 01:00N 58°23' E 005°40'815.1
2017-Sep-14 00:30N 58°28' E 005°30'714.8
2017-Sep-14 00:00N 58°34' E 005°22'714.7
2017-Sep-13 23:30N 58°41' E 005°15'714.9
2017-Sep-13 23:00N 58°47' E 005°09'815.2
2017-Sep-13 22:30N 58°54' E 005°03'815.1
2017-Sep-13 22:00N 59°01' E 004°56'2614.4
2017-Sep-13 20:12N 59°26' E 004°44'315.8
2017-Sep-13 20:00N 59°29' E 004°44'816.2
2017-Sep-13 19:30N 59°37' E 004°47'816.4
2017-Sep-13 18:59N 59°45' E 004°50'816.2
2017-Sep-13 18:30N 59°53' E 004°52'815.9
2017-Sep-13 18:00N 60°01' E 004°55'714.7
2017-Sep-13 17:30N 60°08' E 004°58'714.6
2017-Sep-13 17:00N 60°12' E 005°11'815.9
2017-Sep-13 16:30N 60°20' E 005°11'5 9.2
2017-Sep-13 15:59N 60°24' E 005°16'1 2.3
2017-Sep-13 15:28N 60°24' E 005°19'0 0.0
2017-Sep-13 14:58N 60°24' E 005°19'0 0.0
2017-Sep-13 14:28N 60°24' E 005°19'0 0.0
2017-Sep-13 13:58N 60°24' E 005°19'0 0.0
2017-Sep-13 13:28N 60°24' E 005°19'0 0.0
2017-Sep-13 12:58N 60°24' E 005°19'0 0.0
2017-Sep-13 12:28N 60°24' E 005°19'0 0.0
2017-Sep-13 11:58N 60°24' E 005°19'0 0.0
2017-Sep-13 11:28N 60°24' E 005°19'0 0.0
2017-Sep-13 10:58N 60°24' E 005°19'0 0.0
2017-Sep-13 10:28N 60°24' E 005°19'0 0.0
2017-Sep-13 09:58N 60°24' E 005°19'0 0.0
2017-Sep-13 09:28N 60°24' E 005°19'0 0.0
2017-Sep-13 08:58N 60°24' E 005°19'0 0.0
2017-Sep-13 08:28N 60°24' E 005°19'0 0.0
2017-Sep-13 07:58N 60°24' E 005°19'0 0.0
2017-Sep-13 07:28N 60°24' E 005°19'0 0.0
2017-Sep-13 06:58N 60°24' E 005°19'0 0.0
2017-Sep-13 06:30N 60°24' E 005°19'1 2.7
2017-Sep-13 06:00N 60°24' E 005°16'267931.4
2017-Sep-13 06:00N 60°42' E 004°36'2448.1 230 / 17990.0 5.4 15.010.8
2017-Sep-13 05:30N 60°24' E 005°07'714.3
2017-Sep-13 05:00N 60°30' E 004°58'917.9
2017-Sep-13 04:29N 60°38' E 004°52'817.0
2017-Sep-13 04:00N 60°45' E 004°41'816.1
2017-Sep-13 03:30N 60°50' E 004°28'612.5
2017-Sep-13 03:00N 60°56' E 004°25'714.7
2017-Sep-13 02:30N 61°03' E 004°24'815.2
2017-Sep-13 02:00N 61°11' E 004°23'715.0
2017-Sep-13 01:30N 61°18' E 004°25'815.0
2017-Sep-13 01:00N 61°26' E 004°27'714.9
2017-Sep-13 00:30N 61°33' E 004°28'815.0
2017-Sep-13 00:00N 61°40' E 004°27'815.8
2017-Sep-12 23:30N 61°48' E 004°32'815.4
2017-Sep-12 23:00N 61°55' E 004°38'815.2
2017-Sep-12 22:30N 62°02' E 004°43'715.0
2017-Sep-12 22:00N 62°09' E 004°49'714.4
2017-Sep-12 21:30N 62°15' E 004°58'714.7
2017-Sep-12 21:00N 62°21' E 005°06'815.3
2017-Sep-12 20:30N 62°26' E 005°21'816.2
2017-Sep-12 20:00N 62°27' E 005°38'917.7
2017-Sep-12 19:30N 62°27' E 005°57'611.7
2017-Sep-12 19:00N 62°28' E 006°09'0 0.6
2017-Sep-12 18:28N 62°28' E 006°09'0 0.0
2017-Sep-12 17:58N 62°28' E 006°09'0 0.0
2017-Sep-12 17:28N 62°28' E 006°09'0 0.0
2017-Sep-12 16:58N 62°28' E 006°09'0 0.0
2017-Sep-12 16:28N 62°28' E 006°09'0 0.0
2017-Sep-12 15:58N 62°28' E 006°09'1 1.8
2017-Sep-12 15:30N 62°28' E 006°11'4 9.0
2017-Sep-12 15:00N 62°24' E 006°04'917.5
2017-Sep-12 14:31N 62°24' E 006°22'918.0
2017-Sep-12 14:00N 62°27' E 006°41'815.7
2017-Sep-12 13:30N 62°23' E 006°56'817.4
2017-Sep-12 13:01N 62°15' E 007°01'917.2
2017-Sep-12 12:30N 62°07' E 006°57'611.7
2017-Sep-12 12:00N 62°07' E 007°10'1 2.3
2017-Sep-12 11:30N 62°06' E 007°12'0 0.1
2017-Sep-12 10:58N 62°06' E 007°12'0 0.0
2017-Sep-12 10:28N 62°06' E 007°12'0 0.0
2017-Sep-12 09:58N 62°06' E 007°12'0 0.0
2017-Sep-12 09:28N 62°06' E 007°12'0 0.0
2017-Sep-12 08:58N 62°06' E 007°12'0 0.0
2017-Sep-12 08:28N 62°06' E 007°12'0 0.0
2017-Sep-12 07:58N 62°06' E 007°12'0 0.0
2017-Sep-12 07:28N 62°06' E 007°12'0 0.0
2017-Sep-12 06:58N 62°06' E 007°12'0 0.0
2017-Sep-12 06:28N 62°06' E 007°12'0 0.0
2017-Sep-12 05:58N 62°06' E 007°12'0 0.0
2017-Sep-12 05:30N 62°06' E 007°12'0 0.2
2017-Sep-12 05:00N 62°06' E 007°12'2 4.8
2017-Sep-12 04:29N 62°07' E 007°07'5 9.3
2017-Sep-12 04:00N 62°08' E 006°57'815.4
2017-Sep-12 03:30N 62°15' E 007°01'714.4
2017-Sep-12 03:00N 62°22' E 006°55'713.5
2017-Sep-12 02:30N 62°27' E 006°47'815.3
2017-Sep-12 02:00N 62°25' E 006°30'816.0
2017-Sep-12 01:30N 62°23' E 006°14'815.0
2017-Sep-12 00:59N 62°26' E 005°59'815.5
2017-Sep-12 00:30N 62°27' E 005°42'816.2
2017-Sep-12 00:00N 62°26' E 005°25'714.3
2017-Sep-11 23:30N 62°24' E 005°11'5 9.9
2017-Sep-11 23:00N 62°20' E 005°04'5 9.6
2017-Sep-11 22:29N 62°16' E 004°58'5 9.2
2017-Sep-11 22:00N 62°12' E 004°52'5 9.4
2017-Sep-11 21:31N 62°08' E 004°49'612.8
2017-Sep-11 21:00N 62°01' E 004°49'714.2
2017-Sep-11 20:30N 61°56' E 004°60'714.6
2017-Sep-11 20:00N 61°54' E 005°15'815.9
2017-Sep-11 19:30N 61°55' E 005°31'6 0.5
2017-Sep-11 07:26N 61°53' E 005°43'716.9
2017-Sep-11 07:00N 61°55' E 005°28'816.4
2017-Sep-11 06:30N 61°54' E 005°11'4 8.2
2017-Sep-11 06:00N 61°50' E 005°15'816.1
2017-Sep-11 05:30N 61°46' E 005°00'816.4
2017-Sep-11 05:01N 61°42' E 004°46'5 9.3
2017-Sep-11 04:30N 61°42' E 004°36'5 9.3
2017-Sep-11 03:59N 61°39' E 004°29'612.1
2017-Sep-11 03:29N 61°33' E 004°27'612.0
2017-Sep-11 02:59N 61°27' E 004°26'612.1
2017-Sep-11 02:30N 61°21' E 004°25'612.4
2017-Sep-11 02:00N 61°15' E 004°24'611.8
2017-Sep-11 01:30N 61°09' E 004°22'612.2
2017-Sep-11 00:59N 61°03' E 004°21'612.2
2017-Sep-11 00:29N 60°56' E 004°22'612.2
2017-Sep-11 00:00N 60°50' E 004°24'612.4
2017-Sep-10 23:30N 60°44' E 004°25'815.4
2017-Sep-10 23:00N 60°37' E 004°26'815.1
2017-Sep-10 22:30N 60°29' E 004°27'815.3
2017-Sep-10 22:00N 60°21' E 004°28'815.4
2017-Sep-10 21:30N 60°14' E 004°30'714.5
2017-Sep-10 21:00N 60°07' E 004°31'5716.2
2017-Sep-10 17:31N 59°11' E 004°49'016.3
2017-Sep-10 17:29N 59°11' E 004°49'816.5
2017-Sep-10 17:00N 59°05' E 005°01'611.2
2017-Sep-10 16:31N 59°03' E 005°10'816.5
2017-Sep-10 16:01N 59°07' E 005°24'510.8
2017-Sep-10 15:31N 59°04' E 005°34'815.0
2017-Sep-10 15:00N 58°59' E 005°43'0 0.3
2017-Sep-10 13:58N 58°58' E 005°44'0 0.0
2017-Sep-10 13:28N 58°58' E 005°44'0 0.0
2017-Sep-10 12:58N 58°58' E 005°44'0 0.0
2017-Sep-10 12:28N 58°58' E 005°44'0 0.0
2017-Sep-10 11:58N 58°58' E 005°44'0 0.0
2017-Sep-10 11:28N 58°58' E 005°44'0 0.0
2017-Sep-10 10:58N 58°58' E 005°44'0 0.0
2017-Sep-10 10:28N 58°58' E 005°44'0 0.0
2017-Sep-10 09:58N 58°58' E 005°44'0 0.1
2017-Sep-10 09:30N 58°58' E 005°44'2 4.8
2017-Sep-10 09:00N 59°01' E 005°42'713.3
2017-Sep-10 08:30N 58°58' E 005°55'713.8
2017-Sep-10 08:00N 58°54' E 006°05'611.9
2017-Sep-10 07:30N 58°59' E 006°12'714.1
2017-Sep-10 06:59N 59°01' E 006°25'712.8
2017-Sep-10 06:28N 59°03' E 006°37'0 0.6
2017-Sep-10 06:01N 59°03' E 006°38'1 1.7
2017-Sep-10 05:17N 59°03' E 006°35'612.7
2017-Sep-10 04:48N 59°01' E 006°24'513.9
2017-Sep-10 04:28N 58°60' E 006°15'612.9
2017-Sep-10 04:00N 58°56' E 006°06'3 6.1
2017-Sep-10 03:30N 58°56' E 006°00'815.9
2017-Sep-10 03:00N 59°01' E 005°48'612.6
2017-Sep-10 02:30N 59°02' E 005°36'612.6
2017-Sep-10 02:00N 59°06' E 005°27'5 9.7
2017-Sep-10 01:30N 59°03' E 005°21'5 9.8
2017-Sep-10 01:00N 58°58' E 005°20'  
Track history (hours):
 
Tides and Currents Weather Stations Pressure Air Temp Water Temp Dewpoint Dewpoint Depression Visibility Wind Speed Wind Dir Waves Ship Positions

Albatros

Last reported at 2017-Sep-20 00:30 UTC. Time now 2017-Sep-20 00:34 UTC.
Position N 54°38' W 005°20'.

Length 205.5 m; beam 25.2 m; draft 7.6 m.

Type: Passenger vessel. MMSI: 308784000.

Date/timePositionNaut miles runAvg speedWind from/ knotsBaromVisibWave heightAir tempDewpointWater temp
2017-Sep-20 00:30N 54°38' W 005°20'611.5
2017-Sep-20 00:00N 54°44' W 005°24'611.9
2017-Sep-19 23:30N 54°44' W 005°34'612.0
2017-Sep-19 23:00N 54°42' W 005°44'612.2
2017-Sep-19 22:30N 54°38' W 005°52'2 3.6
2017-Sep-19 22:00N 54°37' W 005°54'0 0.0
2017-Sep-19 10:16N 54°37' W 005°54'1 3.6
2017-Sep-19 09:57N 54°38' W 005°53'511.7
2017-Sep-19 09:30N 54°42' W 005°47'612.3
2017-Sep-19 09:00N 54°45' W 005°38'612.0
2017-Sep-19 08:31N 54°51' W 005°35'713.0
2017-Sep-19 08:00N 54°57' W 005°37'2313.8
2017-Sep-19 06:19N 55°17' W 006°01'516.2
2017-Sep-19 06:00N 55°20' W 006°07'815.1
2017-Sep-19 05:30N 55°24' W 006°19'714.9
2017-Sep-19 05:00N 55°28' W 006°30'714.5
2017-Sep-19 04:31N 55°32' W 006°40'713.0
2017-Sep-19 04:01N 55°36' W 006°49'714.5
2017-Sep-19 03:30N 55°41' W 006°58'714.4
2017-Sep-19 03:00N 55°48' W 007°03'165 7.1
2017-Sep-18 03:37N 58°25' W 005°25'318.3
2017-Sep-18 03:26N 58°28' W 005°22'4116.7
2017-Sep-18 01:00N 58°43' W 004°10'918.8
2017-Sep-18 00:30N 58°43' W 003°52'1019.1
2017-Sep-18 00:00N 58°43' W 003°34'1020.7
2017-Sep-17 23:30N 58°44' W 003°14'1020.1
2017-Sep-17 23:00N 58°39' W 002°57'713.9
2017-Sep-17 22:30N 58°32' W 002°52'51 2.2
2017-Sep-16 23:50N 57°46' W 002°10'412.4
2017-Sep-16 23:30N 57°46' W 002°03'612.5
2017-Sep-16 23:00N 57°46' W 001°51'611.4
2017-Sep-16 22:30N 57°43' W 001°42'611.7
2017-Sep-16 22:00N 57°39' W 001°34'611.6
2017-Sep-16 21:27N 57°35' W 001°24'39414.7
2017-Sep-15 18:40N 53°49' E 008°08'315.5
2017-Sep-15 18:30N 53°47' E 008°10'714.7
2017-Sep-15 18:00N 53°42' E 008°20'713.9
2017-Sep-15 17:30N 53°37' E 008°28'4 8.8
2017-Sep-15 17:01N 53°34' E 008°33'0 0.6
2017-Sep-15 16:28N 53°34' E 008°33'0 0.0
2017-Sep-15 15:58N 53°34' E 008°33'0 0.0
2017-Sep-15 15:28N 53°34' E 008°33'0 0.0
2017-Sep-15 14:58N 53°34' E 008°33'0 0.0
2017-Sep-15 14:28N 53°34' E 008°33'0 0.0
2017-Sep-15 13:58N 53°34' E 008°33'0 0.0
2017-Sep-15 13:28N 53°34' E 008°33'0 0.0
2017-Sep-15 12:58N 53°34' E 008°33'0 0.0
2017-Sep-15 12:28N 53°34' E 008°33'0 0.0
2017-Sep-15 11:58N 53°34' E 008°33'0 0.0
2017-Sep-15 11:28N 53°34' E 008°33'0 0.0
2017-Sep-15 10:58N 53°34' E 008°33'0 0.0
2017-Sep-15 10:28N 53°34' E 008°33'0 0.0
2017-Sep-15 09:58N 53°34' E 008°33'0 0.0
2017-Sep-15 09:28N 53°34' E 008°33'0 0.0
2017-Sep-15 08:58N 53°34' E 008°33'0 0.0
2017-Sep-15 08:28N 53°34' E 008°33'0 0.0
2017-Sep-15 07:58N 53°34' E 008°33'0 0.0
2017-Sep-15 07:28N 53°34' E 008°33'0 0.0
2017-Sep-15 06:58N 53°34' E 008°33'0 0.0
2017-Sep-15 06:25N 53°34' E 008°33'0 0.0
2017-Sep-15 05:58N 53°34' E 008°33'0 0.2
2017-Sep-15 05:30N 53°34' E 008°33'3 6.5
2017-Sep-15 05:00N 53°36' E 008°30'714.9
2017-Sep-15 04:30N 53°41' E 008°21'815.7
2017-Sep-15 04:00N 53°46' E 008°10'815.3
2017-Sep-15 03:30N 53°51' E 008°00'714.1
2017-Sep-15 03:01N 53°52' E 007°49'510.6
2017-Sep-15 02:30N 53°54' E 007°40'5616.3
2017-Sep-14 23:03N 54°46' E 007°00'117.0
2017-Sep-14 22:58N 54°47' E 006°59'816.7
2017-Sep-14 22:30N 54°54' E 006°54'816.7
2017-Sep-14 22:00N 55°02' E 006°49'816.5
2017-Sep-14 21:30N 55°10' E 006°44'816.2
2017-Sep-14 20:59N 55°18' E 006°40'816.4
2017-Sep-14 20:29N 55°26' E 006°38'816.3
2017-Sep-14 19:59N 55°34' E 006°38'816.6
2017-Sep-14 19:29N 55°43' E 006°38'816.7
2017-Sep-14 19:00N 55°50' E 006°39'816.7
2017-Sep-14 18:30N 55°59' E 006°39'916.9
2017-Sep-14 18:00N 56°07' E 006°41'9417.1
2017-Sep-14 12:28N 57°42' E 006°48'817.6
2017-Sep-14 12:00N 57°50' E 006°49'917.2
2017-Sep-14 11:30N 57°58' E 006°50'510.4
2017-Sep-14 11:00N 58°03' E 006°52'4 7.3
2017-Sep-14 10:30N 58°03' E 006°59'4 8.3
2017-Sep-14 10:00N 58°07' E 007°03'0 0.1
2017-Sep-14 09:30N 58°07' E 007°03'0 0.1
2017-Sep-14 09:00N 58°07' E 007°03'0 0.0
2017-Sep-14 08:30N 58°07' E 007°03'0 0.0
2017-Sep-14 08:00N 58°07' E 007°03'0 0.0
2017-Sep-14 07:30N 58°07' E 007°03'0 0.0
2017-Sep-14 06:59N 58°07' E 007°03'0 0.1
2017-Sep-14 06:30N 58°07' E 007°03'0 0.0
2017-Sep-14 06:00N 58°07' E 007°03'0 0.0
2017-Sep-14 05:30N 58°07' E 007°03'1 2.1
2017-Sep-14 05:00N 58°06' E 007°02'4 7.2
2017-Sep-14 04:30N 58°03' E 006°59'611.0
2017-Sep-14 04:00N 58°01' E 006°49'510.9
2017-Sep-14 03:30N 58°02' E 006°39'714.6
2017-Sep-14 03:00N 58°04' E 006°26'815.0
2017-Sep-14 02:30N 58°08' E 006°14'714.8
2017-Sep-14 02:00N 58°13' E 006°03'815.4
2017-Sep-14 01:30N 58°18' E 005°52'815.6
2017-Sep-14 01:00N 58°23' E 005°40'815.1
2017-Sep-14 00:30N 58°28' E 005°30'714.8
2017-Sep-14 00:00N 58°34' E 005°22'714.7
2017-Sep-13 23:30N 58°41' E 005°15'714.9
2017-Sep-13 23:00N 58°47' E 005°09'815.2
2017-Sep-13 22:30N 58°54' E 005°03'815.1
2017-Sep-13 22:00N 59°01' E 004°56'2614.4
2017-Sep-13 20:12N 59°26' E 004°44'315.8
2017-Sep-13 20:00N 59°29' E 004°44'816.2
2017-Sep-13 19:30N 59°37' E 004°47'816.4
2017-Sep-13 18:59N 59°45' E 004°50'816.2
2017-Sep-13 18:30N 59°53' E 004°52'815.9
2017-Sep-13 18:00N 60°01' E 004°55'714.7
2017-Sep-13 17:30N 60°08' E 004°58'714.6
2017-Sep-13 17:00N 60°12' E 005°11'815.9
2017-Sep-13 16:30N 60°20' E 005°11'5 9.2
2017-Sep-13 15:59N 60°24' E 005°16'1 2.3
2017-Sep-13 15:28N 60°24' E 005°19'0 0.0
2017-Sep-13 14:58N 60°24' E 005°19'0 0.0
2017-Sep-13 14:28N 60°24' E 005°19'0 0.0
2017-Sep-13 13:58N 60°24' E 005°19'0 0.0
2017-Sep-13 13:28N 60°24' E 005°19'0 0.0
2017-Sep-13 12:58N 60°24' E 005°19'0 0.0
2017-Sep-13 12:28N 60°24' E 005°19'0 0.0
2017-Sep-13 11:58N 60°24' E 005°19'0 0.0
2017-Sep-13 11:28N 60°24' E 005°19'0 0.0
2017-Sep-13 10:58N 60°24' E 005°19'0 0.0
2017-Sep-13 10:28N 60°24' E 005°19'0 0.0
2017-Sep-13 09:58N 60°24' E 005°19'0 0.0
2017-Sep-13 09:28N 60°24' E 005°19'0 0.0
2017-Sep-13 08:58N 60°24' E 005°19'0 0.0
2017-Sep-13 08:28N 60°24' E 005°19'0 0.0
2017-Sep-13 07:58N 60°24' E 005°19'0 0.0
2017-Sep-13 07:28N 60°24' E 005°19'0 0.0
2017-Sep-13 06:58N 60°24' E 005°19'0 0.0
2017-Sep-13 06:30N 60°24' E 005°19'1 2.7
2017-Sep-13 06:00N 60°24' E 005°16'267931.4
2017-Sep-13 06:00N 60°42' E 004°36'2448.1 230 / 17990.0 5.4 15.010.8
2017-Sep-13 05:30N 60°24' E 005°07'714.3
2017-Sep-13 05:00N 60°30' E 004°58'917.9
2017-Sep-13 04:29N 60°38' E 004°52'817.0
2017-Sep-13 04:00N 60°45' E 004°41'816.1
2017-Sep-13 03:30N 60°50' E 004°28'612.5
2017-Sep-13 03:00N 60°56' E 004°25'714.7
2017-Sep-13 02:30N 61°03' E 004°24'815.2
2017-Sep-13 02:00N 61°11' E 004°23'715.0
2017-Sep-13 01:30N 61°18' E 004°25'815.0
2017-Sep-13 01:00N 61°26' E 004°27'714.9
2017-Sep-13 00:30N 61°33' E 004°28'815.0
2017-Sep-13 00:00N 61°40' E 004°27'815.8
2017-Sep-12 23:30N 61°48' E 004°32'815.4
2017-Sep-12 23:00N 61°55' E 004°38'815.2
2017-Sep-12 22:30N 62°02' E 004°43'715.0
2017-Sep-12 22:00N 62°09' E 004°49'714.4
2017-Sep-12 21:30N 62°15' E 004°58'714.7
2017-Sep-12 21:00N 62°21' E 005°06'815.3
2017-Sep-12 20:30N 62°26' E 005°21'816.2
2017-Sep-12 20:00N 62°27' E 005°38'917.7
2017-Sep-12 19:30N 62°27' E 005°57'611.7
2017-Sep-12 19:00N 62°28' E 006°09'0 0.6
2017-Sep-12 18:28N 62°28' E 006°09'0 0.0
2017-Sep-12 17:58N 62°28' E 006°09'0 0.0
2017-Sep-12 17:28N 62°28' E 006°09'0 0.0
2017-Sep-12 16:58N 62°28' E 006°09'0 0.0
2017-Sep-12 16:28N 62°28' E 006°09'0 0.0
2017-Sep-12 15:58N 62°28' E 006°09'1 1.8
2017-Sep-12 15:30N 62°28' E 006°11'4 9.0
2017-Sep-12 15:00N 62°24' E 006°04'917.5
2017-Sep-12 14:31N 62°24' E 006°22'918.0
2017-Sep-12 14:00N 62°27' E 006°41'815.7
2017-Sep-12 13:30N 62°23' E 006°56'817.4
2017-Sep-12 13:01N 62°15' E 007°01'917.2
2017-Sep-12 12:30N 62°07' E 006°57'611.7
2017-Sep-12 12:00N 62°07' E 007°10'1 2.3
2017-Sep-12 11:30N 62°06' E 007°12'0 0.1
2017-Sep-12 10:58N 62°06' E 007°12'0 0.0
2017-Sep-12 10:28N 62°06' E 007°12'0 0.0
2017-Sep-12 09:58N 62°06' E 007°12'0 0.0
2017-Sep-12 09:28N 62°06' E 007°12'0 0.0
2017-Sep-12 08:58N 62°06' E 007°12'0 0.0
2017-Sep-12 08:28N 62°06' E 007°12'0 0.0
2017-Sep-12 07:58N 62°06' E 007°12'0 0.0
2017-Sep-12 07:28N 62°06' E 007°12'0 0.0
2017-Sep-12 06:58N 62°06' E 007°12'0 0.0
2017-Sep-12 06:28N 62°06' E 007°12'0 0.0
2017-Sep-12 05:58N 62°06' E 007°12'0 0.0
2017-Sep-12 05:30N 62°06' E 007°12'0 0.2
2017-Sep-12 05:00N 62°06' E 007°12'2 4.8
2017-Sep-12 04:29N 62°07' E 007°07'5 9.3
2017-Sep-12 04:00N 62°08' E 006°57'815.4
2017-Sep-12 03:30N 62°15' E 007°01'714.4
2017-Sep-12 03:00N 62°22' E 006°55'713.5
2017-Sep-12 02:30N 62°27' E 006°47'815.3
2017-Sep-12 02:00N 62°25' E 006°30'816.0
2017-Sep-12 01:30N 62°23' E 006°14'815.0
2017-Sep-12 00:59N 62°26' E 005°59'815.5
2017-Sep-12 00:30N 62°27' E 005°42'816.2
2017-Sep-12 00:00N 62°26' E 005°25'714.3
2017-Sep-11 23:30N 62°24' E 005°11'5 9.9
2017-Sep-11 23:00N 62°20' E 005°04'5 9.6
2017-Sep-11 22:29N 62°16' E 004°58'5 9.2
2017-Sep-11 22:00N 62°12' E 004°52'5 9.4
2017-Sep-11 21:31N 62°08' E 004°49'612.8
2017-Sep-11 21:00N 62°01' E 004°49'714.2
2017-Sep-11 20:30N 61°56' E 004°60'714.6
2017-Sep-11 20:00N 61°54' E 005°15'815.9
2017-Sep-11 19:30N 61°55' E 005°31'6 0.5
2017-Sep-11 07:26N 61°53' E 005°43'716.9
2017-Sep-11 07:00N 61°55' E 005°28'816.4
2017-Sep-11 06:30N 61°54' E 005°11'4 8.2
2017-Sep-11 06:00N 61°50' E 005°15'816.1
2017-Sep-11 05:30N 61°46' E 005°00'816.4
2017-Sep-11 05:01N 61°42' E 004°46'5 9.3
2017-Sep-11 04:30N 61°42' E 004°36'5 9.3
2017-Sep-11 03:59N 61°39' E 004°29'612.1
2017-Sep-11 03:29N 61°33' E 004°27'612.0
2017-Sep-11 02:59N 61°27' E 004°26'612.1
2017-Sep-11 02:30N 61°21' E 004°25'612.4
2017-Sep-11 02:00N 61°15' E 004°24'611.8
2017-Sep-11 01:30N 61°09' E 004°22'612.2
2017-Sep-11 00:59N 61°03' E 004°21'612.2
2017-Sep-11 00:29N 60°56' E 004°22'612.2
2017-Sep-11 00:00N 60°50' E 004°24'612.4
2017-Sep-10 23:30N 60°44' E 004°25'815.4
2017-Sep-10 23:00N 60°37' E 004°26'815.1
2017-Sep-10 22:30N 60°29' E 004°27'815.3
2017-Sep-10 22:00N 60°21' E 004°28'815.4
2017-Sep-10 21:30N 60°14' E 004°30'714.5
2017-Sep-10 21:00N 60°07' E 004°31'5716.2
2017-Sep-10 17:31N 59°11' E 004°49'016.3
2017-Sep-10 17:29N 59°11' E 004°49'816.5
2017-Sep-10 17:00N 59°05' E 005°01'611.2
2017-Sep-10 16:31N 59°03' E 005°10'816.5
2017-Sep-10 16:01N 59°07' E 005°24'510.8
2017-Sep-10 15:31N 59°04' E 005°34'815.0
2017-Sep-10 15:00N 58°59' E 005°43'0 0.3
2017-Sep-10 13:58N 58°58' E 005°44'0 0.0
2017-Sep-10 13:28N 58°58' E 005°44'0 0.0
2017-Sep-10 12:58N 58°58' E 005°44'0 0.0
2017-Sep-10 12:28N 58°58' E 005°44'0 0.0
2017-Sep-10 11:58N 58°58' E 005°44'0 0.0
2017-Sep-10 11:28N 58°58' E 005°44'0 0.0
2017-Sep-10 10:58N 58°58' E 005°44'0 0.0
2017-Sep-10 10:28N 58°58' E 005°44'0 0.0
2017-Sep-10 09:58N 58°58' E 005°44'0 0.1
2017-Sep-10 09:30N 58°58' E 005°44'2 4.8
2017-Sep-10 09:00N 59°01' E 005°42'713.3
2017-Sep-10 08:30N 58°58' E 005°55'713.8
2017-Sep-10 08:00N 58°54' E 006°05'611.9
2017-Sep-10 07:30N 58°59' E 006°12'714.1
2017-Sep-10 06:59N 59°01' E 006°25'712.8
2017-Sep-10 06:28N 59°03' E 006°37'0 0.6
2017-Sep-10 06:01N 59°03' E 006°38'1 1.7
2017-Sep-10 05:17N 59°03' E 006°35'612.7
2017-Sep-10 04:48N 59°01' E 006°24'513.9
2017-Sep-10 04:28N 58°60' E 006°15'612.9
2017-Sep-10 04:00N 58°56' E 006°06'3 6.1
2017-Sep-10 03:30N 58°56' E 006°00'815.9
2017-Sep-10 03:00N 59°01' E 005°48'612.6
2017-Sep-10 02:30N 59°02' E 005°36'612.6
2017-Sep-10 02:00N 59°06' E 005°27'5 9.7
2017-Sep-10 01:30N 59°03' E 005°21'5 9.8
2017-Sep-10 01:00N 58°58' E 005°20'  

Dump ship's entire track history